createdAt,value
2022-10-26T00:01:12.606Z,2.60
2022-10-26T00:03:41.685Z,2.10
2022-10-26T00:06:21.410Z,2.07
2022-10-26T00:08:48.862Z,2.00
2022-10-26T00:11:16.307Z,1.90
2022-10-26T00:13:43.696Z,1.80
2022-10-26T00:16:21.640Z,1.65
2022-10-26T00:18:48.951Z,1.88
2022-10-26T00:21:16.635Z,1.90
2022-10-26T00:23:43.562Z,1.73
2022-10-26T00:26:10.720Z,1.70
2022-10-26T00:28:37.914Z,1.97
2022-10-26T00:31:13.335Z,1.63
2022-10-26T00:33:40.819Z,1.77
2022-10-26T00:36:10.027Z,1.60
2022-10-26T00:38:37.739Z,1.70
2022-10-26T00:41:04.956Z,1.60
2022-10-26T00:43:31.746Z,1.88
2022-10-26T00:45:59.797Z,1.50
2022-10-26T00:48:31.923Z,1.83
2022-10-26T00:51:03.467Z,2.20
2022-10-26T00:53:32.799Z,2.05
2022-10-26T00:56:00.284Z,1.88
2022-10-26T00:58:27.606Z,1.85
2022-10-26T01:00:55.645Z,1.67
2022-10-26T01:03:25.309Z,1.77
2022-10-26T01:05:57.161Z,2.10
2022-10-26T01:08:25.685Z,1.80
2022-10-26T01:10:53.200Z,1.70
2022-10-26T01:13:20.752Z,2.07
2022-10-26T01:16:03.771Z,1.47
2022-10-26T01:18:48.142Z,1.80
2022-10-26T01:21:47.147Z,1.60
2022-10-26T01:25:03.960Z,1.90
2022-10-26T01:27:37.110Z,1.80
2022-10-26T01:30:34.035Z,1.70
2022-10-26T01:33:26.517Z,1.50
2022-10-26T01:36:13.348Z,1.80
2022-10-26T01:39:30.323Z,1.77
2022-10-26T01:42:01.881Z,1.70
2022-10-26T01:44:43.081Z,1.50
2022-10-26T01:47:14.213Z,1.58
2022-10-26T01:49:47.308Z,1.70
2022-10-26T01:52:14.288Z,1.65
2022-10-26T01:54:41.209Z,1.55
2022-10-26T01:57:11.912Z,1.65
2022-10-26T01:59:56.774Z,1.77
2022-10-26T02:02:48.057Z,1.50
2022-10-26T02:05:35.933Z,1.30
2022-10-26T02:08:28.716Z,1.60
2022-10-26T02:11:09.576Z,1.40
2022-10-26T02:14:01.926Z,1.40
2022-10-26T02:16:58.290Z,1.58
2022-10-26T02:19:51.823Z,1.17
2022-10-26T02:22:37.412Z,1.50
2022-10-26T02:25:12.923Z,1.30
2022-10-26T02:27:53.933Z,1.48
2022-10-26T02:30:21.047Z,1.38
2022-10-26T02:32:55.187Z,1.58
2022-10-26T02:35:29.748Z,1.30
2022-10-26T02:38:01.043Z,1.20
2022-10-26T02:40:29.484Z,1.50
2022-10-26T02:43:03.970Z,1.40
2022-10-26T02:45:39.645Z,1.48
2022-10-26T02:48:07.149Z,1.52
2022-10-26T02:50:48.315Z,1.30
2022-10-26T02:53:30.984Z,1.40
2022-10-26T02:56:00.655Z,1.70
2022-10-26T02:58:32.983Z,1.50
2022-10-26T03:01:00.335Z,1.27
2022-10-26T03:03:27.308Z,1.63
2022-10-26T03:05:54.195Z,1.50
2022-10-26T03:08:21.196Z,1.50
2022-10-26T03:10:48.114Z,1.63
2022-10-26T03:13:15.091Z,1.20
2022-10-26T03:15:42.017Z,1.50
2022-10-26T03:18:09.130Z,1.30
2022-10-26T03:20:36.119Z,1.55
2022-10-26T03:23:03.046Z,1.57
2022-10-26T03:25:29.998Z,1.60
2022-10-26T03:28:02.092Z,1.20
2022-10-26T03:30:30.647Z,1.40
2022-10-26T03:32:58.001Z,1.63
2022-10-26T03:35:24.999Z,1.50
2022-10-26T03:37:52.201Z,1.30
2022-10-26T03:40:19.360Z,1.70
2022-10-26T03:42:46.508Z,1.58
2022-10-26T03:45:13.594Z,1.60
2022-10-26T03:47:48.898Z,2.08
2022-10-26T03:50:21.799Z,1.57
2022-10-26T03:52:50.581Z,1.40
2022-10-26T03:55:17.695Z,1.57
2022-10-26T03:57:45.898Z,1.40
2022-10-26T04:00:16.357Z,1.52
2022-10-26T04:02:54.531Z,1.70
2022-10-26T04:05:21.894Z,1.70
2022-10-26T04:08:03.158Z,1.50
2022-10-26T04:10:30.666Z,1.80
2022-10-26T04:13:01.369Z,1.57
2022-10-26T04:15:29.180Z,1.38
2022-10-26T04:18:02.032Z,1.20
2022-10-26T04:20:30.975Z,1.47
2022-10-26T04:23:10.224Z,1.85
2022-10-26T04:25:37.316Z,1.50
2022-10-26T04:28:06.474Z,1.40
2022-10-26T04:30:35.094Z,1.60
2022-10-26T04:33:02.535Z,1.50
2022-10-26T04:35:29.507Z,1.60
2022-10-26T04:38:01.303Z,1.20
2022-10-26T04:40:29.537Z,1.70
2022-10-26T04:42:56.654Z,1.33
2022-10-26T04:45:23.808Z,1.50
2022-10-26T04:48:09.839Z,1.52
2022-10-26T04:50:37.853Z,1.40
2022-10-26T04:53:08.840Z,1.23
2022-10-26T04:55:36.316Z,2.00
2022-10-26T04:58:04.148Z,1.45
2022-10-26T05:00:32.967Z,1.45
2022-10-26T05:03:06.276Z,1.70
2022-10-26T05:05:35.500Z,1.57
2022-10-26T05:08:02.503Z,1.52
2022-10-26T05:10:30.000Z,1.38
2022-10-26T05:12:59.355Z,1.90
2022-10-26T05:15:28.167Z,1.83
2022-10-26T05:17:57.472Z,1.50
2022-10-26T05:20:31.532Z,1.70
2022-10-26T05:23:11.963Z,1.55
2022-10-26T05:25:39.210Z,1.63
2022-10-26T05:28:11.673Z,1.85
2022-10-26T05:30:38.893Z,1.80
2022-10-26T05:33:07.533Z,1.60
2022-10-26T05:35:34.466Z,1.80
2022-10-26T05:38:12.606Z,1.88
2022-10-26T05:40:46.979Z,2.22
2022-10-26T05:43:13.848Z,1.90
2022-10-26T05:45:40.796Z,2.35
2022-10-26T05:48:07.700Z,2.00
2022-10-26T05:50:34.588Z,1.95
2022-10-26T05:53:01.639Z,1.63
2022-10-26T05:55:29.151Z,1.52
2022-10-26T05:57:56.719Z,1.83
2022-10-26T06:00:27.334Z,2.10
2022-10-26T06:03:09.161Z,2.10
2022-10-26T06:06:01.631Z,2.10
2022-10-26T06:08:31.318Z,8.20
2022-10-26T06:11:03.123Z,1.98
2022-10-26T06:13:30.521Z,2.15
2022-10-26T06:16:10.336Z,1.98
2022-10-26T06:19:15.275Z,1.80
2022-10-26T06:22:16.135Z,1.92
2022-10-26T06:25:41.472Z,2.15
2022-10-26T06:28:23.362Z,1.70
2022-10-26T06:30:50.679Z,2.08
2022-10-26T06:33:29.030Z,2.10
2022-10-26T06:36:20.727Z,2.45
2022-10-26T06:38:54.506Z,2.25
2022-10-26T06:41:22.843Z,1.80
2022-10-26T06:43:50.401Z,2.35
2022-10-26T06:46:31.806Z,2.35
2022-10-26T06:49:07.066Z,2.00
2022-10-26T06:52:12.396Z,2.30
2022-10-26T06:54:53.327Z,2.43
2022-10-26T06:57:26.154Z,2.03
2022-10-26T06:59:57.342Z,2.60
2022-10-26T07:02:25.091Z,2.70
2022-10-26T07:04:52.170Z,2.85
2022-10-26T07:07:22.953Z,3.03
2022-10-26T07:09:50.569Z,2.70
2022-10-26T07:12:17.720Z,2.38
2022-10-26T07:14:44.736Z,2.65
2022-10-26T07:17:12.093Z,2.23
2022-10-26T07:19:40.464Z,2.30
2022-10-26T07:22:07.358Z,2.38
2022-10-26T07:24:34.271Z,2.63
2022-10-26T07:27:01.213Z,2.35
2022-10-26T07:29:28.153Z,2.67
2022-10-26T07:31:55.143Z,2.78
2022-10-26T07:34:22.108Z,2.55
2022-10-26T07:36:49.004Z,2.95
2022-10-26T07:39:15.937Z,2.70
2022-10-26T07:41:42.826Z,2.63
2022-10-26T07:44:09.731Z,2.90
2022-10-26T07:46:36.618Z,2.80
2022-10-26T07:49:03.531Z,2.60
2022-10-26T07:51:30.427Z,2.60
2022-10-26T07:53:57.350Z,2.75
2022-10-26T07:56:24.460Z,2.83
2022-10-26T07:58:54.211Z,2.22
2022-10-26T08:01:21.976Z,2.22
2022-10-26T08:03:53.552Z,2.45
2022-10-26T08:06:21.897Z,2.28
2022-10-26T08:08:48.918Z,1.95
2022-10-26T08:11:16.559Z,2.17
2022-10-26T08:13:43.682Z,2.42
2022-10-26T08:16:10.672Z,2.20
2022-10-26T08:18:37.520Z,2.53
2022-10-26T08:21:13.729Z,2.22
2022-10-26T08:23:42.644Z,2.33
2022-10-26T08:26:13.557Z,2.40
2022-10-26T08:28:40.752Z,2.10
2022-10-26T08:31:07.925Z,1.80
2022-10-26T08:33:34.941Z,1.70
2022-10-26T08:36:05.253Z,1.90
2022-10-26T08:38:33.957Z,2.00
2022-10-26T08:41:08.932Z,1.70
2022-10-26T08:43:47.447Z,2.10
2022-10-26T08:46:20.335Z,2.13
2022-10-26T08:48:56.057Z,1.77
2022-10-26T08:51:27.792Z,1.98
2022-10-26T08:54:02.233Z,1.83
2022-10-26T08:56:52.549Z,2.22
2022-10-26T08:59:47.921Z,1.85
2022-10-26T09:02:17.439Z,1.80
2022-10-26T09:04:45.123Z,1.88
2022-10-26T09:07:44.256Z,1.67
2022-10-26T09:10:54.932Z,1.90
2022-10-26T09:13:55.220Z,1.67
2022-10-26T09:17:01.711Z,1.70
2022-10-26T09:19:40.980Z,2.00
2022-10-26T09:22:24.472Z,1.92
2022-10-26T09:25:05.476Z,1.75
2022-10-26T09:27:44.369Z,1.60
2022-10-26T09:30:19.030Z,2.00
2022-10-26T09:32:50.369Z,2.03
2022-10-26T09:35:36.578Z,1.60
2022-10-26T09:38:15.918Z,1.70
2022-10-26T09:40:56.213Z,1.90
2022-10-26T09:43:33.587Z,1.90
2022-10-26T09:46:00.543Z,1.90
2022-10-26T09:48:35.531Z,1.80
2022-10-26T09:51:04.741Z,1.52
2022-10-26T09:53:33.113Z,1.88
2022-10-26T09:56:13.546Z,1.85
2022-10-26T09:58:51.247Z,1.85
2022-10-26T10:01:39.994Z,1.60
2022-10-26T10:04:20.071Z,1.52
2022-10-26T10:07:00.492Z,1.80
2022-10-26T10:09:27.480Z,2.17
2022-10-26T10:12:02.635Z,1.60
2022-10-26T10:14:40.056Z,1.48
2022-10-26T10:17:21.230Z,1.60
2022-10-26T10:19:48.568Z,1.60
2022-10-26T10:22:15.397Z,1.25
2022-10-26T10:24:56.657Z,1.42
2022-10-26T10:27:24.574Z,1.75
2022-10-26T10:29:59.943Z,1.60
2022-10-26T10:32:35.472Z,1.63
2022-10-26T10:35:25.136Z,1.60
2022-10-26T10:37:52.841Z,1.88
2022-10-26T10:40:26.906Z,1.33
2022-10-26T10:43:07.243Z,1.80
2022-10-26T10:45:36.239Z,2.03
2022-10-26T10:48:14.621Z,1.70
2022-10-26T10:51:02.430Z,1.80
2022-10-26T10:53:51.339Z,1.83
2022-10-26T10:56:32.731Z,1.80
2022-10-26T10:59:02.335Z,1.90
2022-10-26T11:01:39.434Z,1.80
2022-10-26T11:04:22.259Z,1.80
2022-10-26T11:06:50.454Z,1.73
2022-10-26T11:09:25.766Z,1.77
2022-10-26T11:12:06.994Z,1.85
2022-10-26T11:14:46.459Z,1.40
2022-10-26T11:17:24.426Z,1.40
2022-10-26T11:19:59.997Z,1.60
2022-10-26T11:23:13.210Z,1.60
2022-10-26T11:26:06.116Z,1.65
2022-10-26T11:28:39.544Z,1.48
2022-10-26T11:31:14.474Z,1.60
2022-10-26T11:33:47.710Z,1.58
2022-10-26T11:36:24.524Z,1.70
2022-10-26T11:39:02.732Z,1.73
2022-10-26T11:41:56.078Z,1.60
2022-10-26T11:44:36.881Z,1.15
2022-10-26T11:47:11.486Z,1.45
2022-10-26T11:49:45.716Z,1.80
2022-10-26T11:52:22.704Z,1.48
2022-10-26T11:55:00.523Z,1.52
2022-10-26T11:57:29.568Z,1.48
2022-10-26T12:00:09.018Z,1.50
2022-10-26T12:05:38.624Z,1.38
2022-10-26T12:08:19.456Z,1.67
2022-10-26T12:11:01.635Z,1.67
2022-10-26T12:13:43.921Z,1.73
2022-10-26T12:16:36.197Z,1.50
2022-10-26T12:19:15.882Z,1.42
2022-10-26T12:21:43.957Z,1.30
2022-10-26T12:24:23.475Z,1.45
2022-10-26T12:27:04.526Z,1.40
2022-10-26T12:29:47.203Z,1.50
2022-10-26T12:32:31.922Z,1.35
2022-10-26T12:35:02.321Z,1.35
2022-10-26T12:37:36.861Z,1.58
2022-10-26T12:40:41.866Z,1.60
2022-10-26T12:43:14.887Z,1.33
2022-10-26T12:45:43.838Z,1.60
2022-10-26T12:48:47.442Z,1.58
2022-10-26T12:51:22.980Z,1.45
2022-10-26T12:54:24.119Z,1.42
2022-10-26T12:57:18.343Z,1.38
2022-10-26T13:00:01.250Z,1.27
2022-10-26T13:03:19.897Z,1.48
2022-10-26T13:06:02.191Z,1.35
2022-10-26T13:08:42.384Z,1.63
2022-10-26T13:11:33.063Z,1.70
2022-10-26T13:14:07.837Z,1.50
2022-10-26T13:16:35.553Z,1.52
2022-10-26T13:19:02.654Z,1.63
2022-10-26T13:21:29.668Z,1.45
2022-10-26T13:24:02.172Z,1.45
2022-10-26T13:26:31.497Z,1.50
2022-10-26T13:29:01.564Z,1.42
2022-10-26T13:31:31.494Z,1.67
2022-10-26T13:34:11.057Z,1.30
2022-10-26T13:37:01.559Z,1.38
2022-10-26T13:39:37.555Z,1.45
2022-10-26T13:42:07.424Z,1.50
2022-10-26T13:44:45.021Z,1.33
2022-10-26T13:47:24.254Z,1.35
2022-10-26T13:49:57.243Z,1.17
2022-10-26T13:52:44.500Z,1.70
2022-10-26T13:55:37.174Z,1.10
2022-10-26T13:58:11.475Z,1.60
2022-10-26T14:00:38.474Z,1.50
2022-10-26T14:03:21.102Z,1.60
2022-10-26T14:05:51.088Z,1.50
2022-10-26T14:08:21.013Z,1.55
2022-10-26T14:10:59.028Z,1.30
2022-10-26T14:13:29.027Z,1.20
2022-10-26T14:15:58.766Z,1.35
2022-10-26T14:18:30.095Z,1.65
2022-10-26T14:21:16.947Z,1.30
2022-10-26T14:23:49.062Z,1.60
2022-10-26T14:26:27.148Z,1.45
2022-10-26T14:29:00.827Z,1.10
2022-10-26T14:31:35.734Z,1.25
2022-10-26T14:34:04.933Z,1.42
2022-10-26T14:36:46.709Z,1.33
2022-10-26T14:39:38.539Z,1.50
2022-10-26T14:42:29.325Z,1.17
2022-10-26T14:44:57.874Z,1.40
2022-10-26T14:47:31.409Z,1.27
2022-10-26T14:52:35.960Z,1.52
2022-10-26T14:55:16.703Z,1.65
2022-10-26T14:57:46.839Z,1.42
2022-10-26T15:00:21.004Z,1.10
2022-10-26T15:02:54.549Z,1.60
2022-10-26T15:05:34.790Z,1.25
2022-10-26T15:08:03.338Z,1.40
2022-10-26T15:10:36.656Z,1.38
2022-10-26T15:13:25.095Z,1.50
2022-10-26T15:15:58.072Z,1.45
2022-10-26T15:18:28.738Z,1.45
2022-10-26T15:20:57.273Z,1.63
2022-10-26T15:23:27.467Z,1.42
2022-10-26T15:26:01.287Z,1.67
2022-10-26T15:28:38.883Z,1.55
2022-10-26T15:31:11.663Z,1.55
2022-10-26T15:33:48.245Z,1.55
2022-10-26T15:36:21.427Z,1.33
2022-10-26T15:38:48.971Z,1.52
2022-10-26T15:41:47.923Z,1.55
2022-10-26T15:44:20.445Z,1.80
2022-10-26T15:46:47.433Z,1.88
2022-10-26T15:49:21.480Z,2.03
2022-10-26T15:51:49.466Z,1.30
2022-10-26T15:54:16.534Z,1.20
2022-10-26T15:56:44.048Z,1.60
2022-10-26T15:59:17.751Z,1.65
2022-10-26T16:01:44.949Z,1.40
2022-10-26T16:04:14.398Z,1.63
2022-10-26T16:06:42.339Z,1.50
2022-10-26T16:09:16.079Z,1.80
2022-10-26T16:11:44.273Z,1.20
2022-10-26T16:14:12.965Z,1.35
2022-10-26T16:16:40.096Z,1.67
2022-10-26T16:19:29.685Z,1.58
2022-10-26T16:21:56.700Z,1.38
2022-10-26T16:24:23.604Z,1.40
2022-10-26T16:26:50.664Z,1.65
2022-10-26T16:29:17.888Z,1.13
2022-10-26T16:31:45.185Z,1.45
2022-10-26T16:34:12.207Z,1.60
2022-10-26T16:36:39.260Z,2.17
2022-10-26T16:39:07.121Z,1.42
2022-10-26T16:41:34.756Z,1.60
2022-10-26T16:44:01.675Z,1.67
2022-10-26T16:46:28.654Z,1.30
2022-10-26T16:48:55.565Z,1.60
2022-10-26T16:51:28.304Z,1.55
2022-10-26T16:53:57.250Z,1.70
2022-10-26T16:56:30.145Z,1.80
2022-10-26T16:58:57.531Z,2.47
2022-10-26T17:01:24.941Z,2.50
2022-10-26T17:03:52.991Z,1.85
2022-10-26T17:06:20.738Z,1.40
2022-10-26T17:08:47.974Z,1.42
2022-10-26T17:11:21.324Z,1.67
2022-10-26T17:13:53.705Z,1.58
2022-10-26T17:16:23.298Z,1.60
2022-10-26T17:18:51.326Z,1.52
2022-10-26T17:21:28.725Z,1.45
2022-10-26T17:23:55.795Z,1.65
2022-10-26T17:26:22.709Z,1.70
2022-10-26T17:28:54.929Z,1.52
2022-10-26T17:31:22.247Z,1.70
2022-10-26T17:33:50.413Z,1.42
2022-10-26T17:36:20.789Z,1.20
2022-10-26T17:38:53.576Z,1.50
2022-10-26T17:41:22.213Z,2.97
2022-10-26T17:43:50.144Z,6.28
2022-10-26T17:46:24.247Z,6.07
2022-10-26T17:48:59.515Z,3.63
2022-10-26T17:51:29.494Z,3.65
2022-10-26T17:53:57.187Z,3.20
2022-10-26T17:56:27.627Z,2.40
2022-10-26T17:59:04.977Z,1.98
2022-10-26T18:01:32.664Z,1.88
2022-10-26T18:04:00.605Z,2.00
2022-10-26T18:06:27.707Z,1.92
2022-10-26T18:08:57.233Z,1.90
2022-10-26T18:11:27.157Z,1.90
2022-10-26T18:13:55.716Z,1.73
2022-10-26T18:16:25.255Z,2.15
2022-10-26T18:19:02.045Z,1.52
2022-10-26T18:21:37.727Z,1.70
2022-10-26T18:24:08.802Z,1.70
2022-10-26T18:26:36.441Z,1.80
2022-10-26T18:29:04.969Z,1.80
2022-10-26T18:31:34.717Z,1.90
2022-10-26T18:34:04.834Z,1.80
2022-10-26T18:36:32.697Z,1.50
2022-10-26T18:38:59.835Z,1.98
2022-10-26T18:41:27.652Z,1.85
2022-10-26T18:43:59.633Z,1.92
2022-10-26T18:46:30.270Z,1.50
2022-10-26T18:48:59.014Z,1.83
2022-10-26T18:51:31.560Z,2.20
2022-10-26T18:53:59.371Z,2.10
2022-10-26T18:56:27.265Z,2.33
2022-10-26T18:58:58.805Z,2.05
2022-10-26T19:01:32.371Z,2.10
2022-10-26T19:04:10.781Z,2.05
2022-10-26T19:06:47.399Z,1.75
2022-10-26T19:09:19.148Z,1.90
2022-10-26T19:11:46.351Z,1.60
2022-10-26T19:14:13.863Z,2.05
2022-10-26T19:16:45.794Z,1.95
2022-10-26T19:19:14.835Z,2.13
2022-10-26T19:21:41.838Z,1.55
2022-10-26T19:24:22.103Z,1.60
2022-10-26T19:26:51.246Z,1.50
2022-10-26T19:29:19.204Z,1.73
2022-10-26T19:31:51.707Z,1.80
2022-10-26T19:34:19.332Z,1.65
2022-10-26T19:36:47.149Z,1.60
2022-10-26T19:39:16.315Z,1.70
2022-10-26T19:41:44.165Z,1.70
2022-10-26T19:44:12.315Z,1.50
2022-10-26T19:46:39.614Z,1.70
2022-10-26T19:49:06.641Z,1.85
2022-10-26T19:51:33.590Z,1.73
2022-10-26T19:54:03.861Z,1.83
2022-10-26T19:56:32.353Z,1.70
2022-10-26T19:58:59.807Z,2.17
2022-10-26T20:01:27.153Z,2.10
2022-10-26T20:03:54.304Z,2.65
2022-10-26T20:06:21.298Z,2.20
2022-10-26T20:08:49.571Z,2.17
2022-10-26T20:11:18.171Z,2.47
2022-10-26T20:13:47.559Z,2.00
2022-10-26T20:16:17.559Z,2.22
2022-10-26T20:18:47.830Z,2.28
2022-10-26T20:21:17.377Z,2.30
2022-10-26T20:23:45.183Z,2.42
2022-10-26T20:26:19.272Z,2.10
2022-10-26T20:28:48.322Z,2.25
2022-10-26T20:31:15.448Z,2.15
2022-10-26T20:33:42.635Z,1.95
2022-10-26T20:36:09.917Z,2.58
2022-10-26T20:38:37.248Z,2.40
2022-10-26T20:41:07.724Z,2.05
2022-10-26T20:43:40.015Z,1.83
2022-10-26T20:46:11.833Z,2.45
2022-10-26T20:48:39.277Z,2.30
2022-10-26T20:51:44.536Z,2.20
2022-10-26T20:54:34.135Z,2.42
2022-10-26T20:57:02.719Z,2.00
2022-10-26T20:59:43.417Z,2.25
2022-10-26T21:02:11.077Z,2.25
2022-10-26T21:04:38.071Z,2.42
2022-10-26T21:07:05.087Z,2.60
2022-10-26T21:09:34.241Z,2.45
2022-10-26T21:12:04.664Z,2.60
2022-10-26T21:14:35.786Z,2.75
2022-10-26T21:17:02.652Z,2.38
2022-10-26T21:19:29.537Z,2.63
2022-10-26T21:21:57.585Z,2.13
2022-10-26T21:24:24.578Z,2.70
2022-10-26T21:26:52.357Z,2.42
2022-10-26T21:29:19.336Z,2.40
2022-10-26T21:31:46.220Z,2.05
2022-10-26T21:34:13.481Z,2.50
2022-10-26T21:36:40.420Z,2.58
2022-10-26T21:39:07.351Z,2.33
2022-10-26T21:41:37.148Z,2.58
2022-10-26T21:44:09.685Z,2.40
2022-10-26T21:46:42.532Z,2.78
2022-10-26T21:49:09.449Z,2.30
2022-10-26T21:51:36.522Z,2.17
2022-10-26T21:54:04.436Z,2.75
2022-10-26T21:56:31.398Z,2.45
2022-10-26T21:59:00.325Z,2.25
2022-10-26T22:01:27.732Z,2.88
2022-10-26T22:03:54.851Z,2.53
2022-10-26T22:06:21.800Z,2.40
2022-10-26T22:08:49.749Z,1.95
2022-10-26T22:11:23.257Z,2.28
2022-10-26T22:13:51.735Z,2.50
2022-10-26T22:16:27.901Z,2.25
2022-10-26T22:18:58.195Z,2.17
2022-10-26T22:21:27.169Z,2.28
2022-10-26T22:23:54.585Z,2.47
2022-10-26T22:26:24.491Z,2.80
2022-10-26T22:28:55.232Z,2.55
2022-10-26T22:31:28.910Z,2.33
2022-10-26T22:34:02.028Z,2.60
2022-10-26T22:36:32.335Z,2.60
2022-10-26T22:38:59.251Z,2.53
2022-10-26T22:41:26.629Z,2.28
2022-10-26T22:43:53.577Z,2.00
2022-10-26T22:46:23.299Z,2.20
2022-10-26T22:49:01.752Z,2.13
2022-10-26T22:51:33.579Z,2.42
2022-10-26T22:54:02.144Z,2.45
2022-10-26T22:56:30.986Z,2.40
2022-10-26T22:58:58.423Z,2.60
2022-10-26T23:01:31.733Z,2.38
2022-10-26T23:03:59.973Z,2.28
2022-10-26T23:06:29.653Z,2.65
2022-10-26T23:08:57.000Z,2.08
2022-10-26T23:11:27.068Z,2.35
2022-10-26T23:13:55.673Z,2.17
2022-10-26T23:16:23.101Z,2.03
2022-10-26T23:18:50.268Z,2.33
2022-10-26T23:21:18.025Z,2.15
2022-10-26T23:23:45.398Z,2.10
2022-10-26T23:26:16.483Z,2.05
2022-10-26T23:28:44.229Z,1.83
2022-10-26T23:31:23.820Z,1.90
2022-10-26T23:33:52.168Z,1.90
2022-10-26T23:36:19.536Z,2.00
2022-10-26T23:38:47.517Z,2.00
2022-10-26T23:41:15.500Z,1.52
2022-10-26T23:43:42.658Z,1.80
2022-10-26T23:46:09.719Z,2.20
2022-10-26T23:48:37.150Z,2.05
2022-10-26T23:51:04.231Z,2.10
2022-10-26T23:53:31.142Z,2.20
2022-10-26T23:55:58.027Z,2.10
2022-10-26T23:58:24.977Z,1.98
